Time;durP1;ratioP1;P1;durP2;ratioP2;P2;SDS_P1;SDS_P2;PMS_P1;PMS_P2;Temp;Humidity;BMP_temperature;BMP_pressure;BME280_temperature;BME280_humidity;BME280_pressure;Samples;Min_cycle;Max_cycle;Signal;HPM_P1;HPM_P2
2023/04/28 00:01:50;;;;;;;5.15;2.78;;;10.50;96.20;;;;;;5020620;28;20044;-82
2023/04/28 00:04:15;;;;;;;5.13;3.13;;;10.50;96.20;;;;;;5019400;28;20041;-83
2023/04/28 00:06:41;;;;;;;5.03;3.10;;;10.50;96.20;;;;;;5018335;28;20021;-83
2023/04/28 00:09:09;;;;;;;4.40;2.55;;;10.50;96.20;;;;;;5019231;28;20104;-83
2023/04/28 00:11:35;;;;;;;5.50;2.72;;;10.40;96.30;;;;;;5017833;28;20064;-82
2023/04/28 00:14:01;;;;;;;3.60;2.40;;;10.40;96.30;;;;;;5021210;28;20417;-82
2023/04/28 00:16:27;;;;;;;4.07;2.67;;;10.40;96.40;;;;;;5021306;28;20068;-83
2023/04/28 00:18:52;;;;;;;5.50;3.08;;;10.30;96.50;;;;;;5019881;28;20037;-82
2023/04/28 00:21:18;;;;;;;6.80;3.30;;;10.30;96.50;;;;;;5020752;28;20123;-83
2023/04/28 00:23:43;;;;;;;5.20;3.28;;;10.30;96.50;;;;;;5019702;28;20124;-83
2023/04/28 00:26:09;;;;;;;5.38;3.20;;;10.20;96.40;;;;;;5020568;28;20116;-83
2023/04/28 00:28:34;;;;;;;3.88;2.78;;;10.20;96.50;;;;;;5019640;28;20137;-83
2023/04/28 00:31:00;;;;;;;4.68;2.63;;;10.20;96.70;;;;;;5021746;28;20064;-84
2023/04/28 00:33:26;;;;;;;5.03;2.78;;;10.20;96.70;;;;;;5017869;28;20075;-84
2023/04/28 00:35:59;;;;;;;4.60;2.55;;;10.20;96.80;;;;;;5021255;28;22706;-84
2023/04/28 00:38:25;;;;;;;4.78;2.72;;;10.10;96.70;;;;;;5033602;28;20041;-83
2023/04/28 00:40:50;;;;;;;4.70;2.50;;;10.10;96.80;;;;;;5018073;28;20053;-84
2023/04/28 00:43:16;;;;;;;4.18;2.47;;;10.10;96.90;;;;;;5019386;28;20029;-81
2023/04/28 00:45:41;;;;;;;4.82;2.83;;;10.10;97.00;;;;;;5020135;28;20057;-83
2023/04/28 00:48:07;;;;;;;5.15;2.88;;;10.20;97.00;;;;;;5020655;28;20041;-83
2023/04/28 00:50:32;;;;;;;2.65;1.95;;;10.10;97.10;;;;;;5020752;28;20026;-84
2023/04/28 00:52:59;;;;;;;7.53;3.13;;;10.10;97.10;;;;;;5018468;28;20482;-83
2023/04/28 00:55:26;;;;;;;5.25;2.85;;;10.10;97.10;;;;;;5019087;28;20576;-82
2023/04/28 00:57:55;;;;;;;4.20;2.65;;;10.10;97.10;;;;;;5017070;28;20060;-83
2023/04/28 01:00:20;;;;;;;5.32;2.60;;;10.20;97.10;;;;;;5018184;28;20025;-83
2023/04/28 01:02:46;;;;;;;4.60;2.40;;;10.10;97.10;;;;;;5019164;28;20033;-84
2023/04/28 01:05:13;;;;;;;3.65;2.50;;;10.10;97.10;;;;;;5019535;28;20133;-82
2023/04/28 01:07:39;;;;;;;4.05;2.13;;;10.10;97.20;;;;;;5019097;28;20482;-82
2023/04/28 01:10:05;;;;;;;5.18;2.38;;;10.10;97.30;;;;;;5018031;28;20107;-83
2023/04/28 01:12:31;;;;;;;4.28;2.63;;;10.00;97.40;;;;;;5019624;28;20033;-81
2023/04/28 01:14:57;;;;;;;4.55;2.42;;;10.00;97.60;;;;;;5019018;28;20087;-83
2023/04/28 01:17:23;;;;;;;4.40;2.40;;;10.00;97.70;;;;;;5018152;28;20025;-82
2023/04/28 01:19:48;;;;;;;3.65;2.10;;;10.00;97.90;;;;;;5020444;28;20112;-83
2023/04/28 01:22:15;;;;;;;3.65;2.35;;;10.00;98.10;;;;;;5019081;28;20064;-82
2023/04/28 01:24:41;;;;;;;5.38;2.65;;;9.90;98.30;;;;;;5018820;28;20053;-82
2023/04/28 01:27:06;;;;;;;4.22;2.50;;;9.80;98.40;;;;;;5017304;28;20602;-81
2023/04/28 01:29:32;;;;;;;4.53;2.60;;;9.80;98.70;;;;;;5017122;28;20029;-81
2023/04/28 01:31:58;;;;;;;4.85;2.97;;;9.80;99.10;;;;;;5018072;28;20487;-82
2023/04/28 01:34:23;;;;;;;4.35;2.85;;;9.70;99.20;;;;;;5018816;28;20473;-82
2023/04/28 01:36:49;;;;;;;4.68;3.05;;;9.60;99.30;;;;;;5019859;28;20380;-82
2023/04/28 01:39:15;;;;;;;3.83;2.45;;;9.50;99.50;;;;;;5016750;28;20038;-82
2023/04/28 01:41:41;;;;;;;4.53;2.92;;;9.50;99.70;;;;;;5018688;28;20025;-82
2023/04/28 01:44:06;;;;;;;4.20;2.78;;;9.50;99.90;;;;;;5018081;28;20473;-83
2023/04/28 01:46:32;;;;;;;4.90;2.97;;;9.50;99.90;;;;;;5018498;28;20029;-82
2023/04/28 01:48:58;;;;;;;4.35;2.80;;;9.40;99.90;;;;;;5016052;28;20044;-82
2023/04/28 01:51:24;;;;;;;4.95;2.90;;;9.40;99.90;;;;;;5016701;28;20022;-84
2023/04/28 01:53:49;;;;;;;4.75;2.63;;;9.30;99.90;;;;;;5016999;28;20483;-84
2023/04/28 01:56:15;;;;;;;6.45;3.40;;;9.30;99.90;;;;;;5018174;28;20431;-81
2023/04/28 01:58:40;;;;;;;5.55;2.85;;;9.30;99.90;;;;;;5018728;28;20364;-82
2023/04/28 02:01:06;;;;;;;4.55;2.75;;;9.30;99.90;;;;;;5018436;28;20502;-82
2023/04/28 02:03:31;;;;;;;4.32;3.10;;;9.30;99.90;;;;;;5017949;28;20050;-82
2023/04/28 02:05:58;;;;;;;5.47;3.00;;;9.30;99.90;;;;;;5018932;28;20032;-83
2023/04/28 02:08:23;;;;;;;5.55;3.35;;;9.30;99.90;;;;;;5017805;28;20033;-82
2023/04/28 02:10:49;;;;;;;6.50;3.03;;;9.30;99.90;;;;;;5018683;28;20549;-82
2023/04/28 02:13:16;;;;;;;4.90;2.80;;;9.30;99.90;;;;;;5019584;28;20037;-81
2023/04/28 02:15:42;;;;;;;4.15;3.20;;;9.30;99.90;;;;;;5017247;28;20213;-83
2023/04/28 02:18:08;;;;;;;4.47;2.92;;;9.30;99.90;;;;;;5018168;28;20030;-83
2023/04/28 02:20:34;;;;;;;3.80;2.63;;;9.30;99.90;;;;;;5017277;28;20018;-83
2023/04/28 02:22:59;;;;;;;4.65;2.92;;;9.30;99.90;;;;;;5016731;28;20537;-83
2023/04/28 02:25:25;;;;;;;4.05;2.70;;;9.30;99.90;;;;;;5017888;28;20478;-82
2023/04/28 02:27:50;;;;;;;4.55;3.03;;;9.30;99.90;;;;;;5017626;28;20026;-83
2023/04/28 02:30:16;;;;;;;4.05;2.75;;;9.30;99.90;;;;;;5018912;28;20049;-83
2023/04/28 02:32:42;;;;;;;4.18;3.10;;;9.40;99.90;;;;;;5019160;28;20041;-82
2023/04/28 02:35:07;;;;;;;4.07;2.53;;;9.40;99.90;;;;;;5017926;28;21026;-82
2023/04/28 02:37:33;;;;;;;4.53;2.78;;;9.40;99.90;;;;;;5013745;28;20033;-83
2023/04/28 02:39:58;;;;;;;3.53;2.35;;;9.40;99.90;;;;;;5018562;28;20025;-82
2023/04/28 02:42:24;;;;;;;5.47;3.35;;;9.40;99.90;;;;;;5031629;28;20078;-82
2023/04/28 02:44:49;;;;;;;4.80;3.25;;;9.40;99.90;;;;;;5017866;28;21215;-82
2023/04/28 02:47:15;;;;;;;7.60;3.45;;;9.40;99.90;;;;;;5018588;28;20072;-82
2023/04/28 02:49:40;;;;;;;6.07;3.90;;;9.30;99.90;;;;;;5018673;28;20030;-83
2023/04/28 02:52:06;;;;;;;4.63;3.10;;;9.40;99.90;;;;;;5016331;28;20025;-83
2023/04/28 02:54:34;;;;;;;5.25;2.63;;;9.30;99.90;;;;;;5018281;28;20025;-83
2023/04/28 02:57:00;;;;;;;7.28;3.10;;;9.40;99.90;;;;;;5016623;28;20026;-83
2023/04/28 02:59:26;;;;;;;5.10;3.42;;;9.40;99.90;;;;;;5016282;28;20029;-81
2023/04/28 03:01:51;;;;;;;3.70;2.40;;;9.40;99.90;;;;;;5021136;28;20037;-82
2023/04/28 03:04:17;;;;;;;5.80;3.30;;;9.40;99.90;;;;;;5020977;28;20033;-81
2023/04/28 03:06:43;;;;;;;4.90;3.00;;;9.40;99.90;;;;;;5022056;28;20485;-83
2023/04/28 03:09:09;;;;;;;5.15;2.55;;;9.30;99.90;;;;;;5021115;28;20512;-82
2023/04/28 03:11:35;;;;;;;4.97;2.70;;;9.30;99.90;;;;;;5020353;28;20644;-82
2023/04/28 03:14:01;;;;;;;4.97;2.88;;;9.30;99.90;;;;;;5021978;28;20033;-83
2023/04/28 03:16:26;;;;;;;6.32;3.08;;;9.30;99.90;;;;;;5020777;28;20029;-82
2023/04/28 03:18:52;;;;;;;4.25;2.70;;;9.30;99.90;;;;;;5022494;28;20570;-82
2023/04/28 03:21:17;;;;;;;4.85;3.20;;;9.30;99.90;;;;;;5019980;28;20594;-83
2023/04/28 03:23:43;;;;;;;4.55;2.88;;;9.40;99.90;;;;;;5020663;28;20083;-82
2023/04/28 03:26:08;;;;;;;4.72;2.78;;;9.40;99.90;;;;;;5021252;28;20026;-83
2023/04/28 03:28:34;;;;;;;4.43;3.05;;;9.40;99.90;;;;;;5021692;28;20536;-83
2023/04/28 03:31:00;;;;;;;4.80;2.95;;;9.30;99.90;;;;;;5019271;28;20029;-83
2023/04/28 03:33:25;;;;;;;3.60;2.55;;;9.30;99.90;;;;;;5021357;28;20545;-82
2023/04/28 03:35:52;;;;;;;5.97;3.03;;;9.30;99.90;;;;;;5020349;28;20075;-82
2023/04/28 03:38:18;;;;;;;4.30;2.67;;;9.40;99.90;;;;;;5020546;28;20018;-83
2023/04/28 03:40:43;;;;;;;6.22;3.30;;;9.30;99.90;;;;;;5021667;28;20494;-83
2023/04/28 03:43:09;;;;;;;5.25;3.13;;;9.30;99.90;;;;;;5021565;28;20083;-82
2023/04/28 03:45:34;;;;;;;4.68;2.90;;;9.30;99.90;;;;;;5020181;28;20025;-80
2023/04/28 03:48:00;;;;;;;4.15;2.30;;;9.30;99.90;;;;;;5019952;28;20038;-83
2023/04/28 03:50:25;;;;;;;4.60;2.90;;;9.40;99.90;;;;;;5018621;28;20029;-82
2023/04/28 03:52:51;;;;;;;6.32;2.92;;;9.40;99.90;;;;;;5021077;28;20029;-82
2023/04/28 03:55:16;;;;;;;4.68;2.85;;;9.40;99.90;;;;;;5019636;28;20033;-82
2023/04/28 03:57:42;;;;;;;4.38;2.83;;;9.40;99.90;;;;;;5020813;28;20030;-82
2023/04/28 04:00:08;;;;;;;4.90;2.92;;;9.40;99.90;;;;;;5021477;28;20482;-83
2023/04/28 04:02:34;;;;;;;5.07;2.97;;;9.40;99.90;;;;;;5019782;28;20309;-82
2023/04/28 04:05:00;;;;;;;4.57;2.90;;;9.40;99.90;;;;;;5020931;28;20025;-82
2023/04/28 04:07:26;;;;;;;5.55;3.35;;;9.40;99.90;;;;;;5020034;28;20719;-82
2023/04/28 04:09:51;;;;;;;6.90;3.38;;;9.40;99.90;;;;;;5019146;28;20498;-83
2023/04/28 04:12:17;;;;;;;4.55;3.05;;;9.40;99.90;;;;;;5020137;28;20030;-82
2023/04/28 04:14:43;;;;;;;3.65;2.42;;;9.40;99.90;;;;;;5019937;28;20029;-84
2023/04/28 04:17:08;;;;;;;5.13;3.00;;;9.40;99.90;;;;;;5017138;28;20040;-83
2023/04/28 04:19:34;;;;;;;6.68;3.08;;;9.40;99.90;;;;;;5019794;28;20033;-82
2023/04/28 04:21:59;;;;;;;5.30;3.40;;;9.40;99.90;;;;;;5019356;28;20030;-82
2023/04/28 04:24:25;;;;;;;4.72;2.95;;;9.40;99.90;;;;;;5019941;28;20038;-82
2023/04/28 04:26:50;;;;;;;5.25;2.70;;;9.40;99.90;;;;;;5020342;28;21285;-82
2023/04/28 04:29:16;;;;;;;5.60;2.85;;;9.40;99.90;;;;;;5020967;28;20021;-83
2023/04/28 04:31:44;;;;;;;3.72;2.78;;;9.40;99.90;;;;;;5020057;28;20045;-83
2023/04/28 04:34:10;;;;;;;5.88;3.05;;;9.40;99.90;;;;;;5019237;28;20155;-83
2023/04/28 04:36:35;;;;;;;5.28;3.10;;;9.40;99.90;;;;;;5019553;28;20034;-82
2023/04/28 04:39:01;;;;;;;6.18;3.42;;;9.40;99.90;;;;;;5019564;28;20036;-82
2023/04/28 04:41:27;;;;;;;5.30;3.13;;;9.40;99.90;;;;;;5019490;28;20166;-82
2023/04/28 04:43:52;;;;;;;5.20;3.30;;;9.40;99.90;;;;;;5018508;28;20048;-82
2023/04/28 04:46:18;;;;;;;6.05;3.35;;;9.40;99.90;;;;;;5018394;28;20045;-82
2023/04/28 04:48:44;;;;;;;5.07;3.63;;;9.40;99.90;;;;;;5020324;28;20029;-82
2023/04/28 04:51:10;;;;;;;6.70;3.80;;;9.40;99.90;;;;;;5018638;28;20029;-82
2023/04/28 04:53:35;;;;;;;6.18;3.50;;;9.40;99.90;;;;;;5018988;28;20148;-83
2023/04/28 04:56:01;;;;;;;5.65;3.58;;;9.40;99.90;;;;;;5019302;28;20108;-82
2023/04/28 04:58:27;;;;;;;5.65;3.70;;;9.40;99.90;;;;;;5018515;28;20033;-83
2023/04/28 05:00:52;;;;;;;7.25;3.70;;;9.40;99.90;;;;;;5021600;28;20018;-84
2023/04/28 05:03:19;;;;;;;5.60;3.70;;;9.40;99.90;;;;;;5020947;28;20048;-82
2023/04/28 05:05:44;;;;;;;6.97;4.00;;;9.50;99.90;;;;;;5018402;28;20080;-83
2023/04/28 05:08:11;;;;;;;5.70;3.60;;;9.50;99.90;;;;;;5018849;28;20041;-82
2023/04/28 05:10:36;;;;;;;6.88;4.05;;;9.50;99.90;;;;;;5018365;28;20156;-83
2023/04/28 05:13:02;;;;;;;8.15;4.03;;;9.50;99.90;;;;;;5020910;28;20033;-83
2023/04/28 05:15:28;;;;;;;5.90;3.47;;;9.50;99.90;;;;;;5018777;28;20120;-82
2023/04/28 05:17:54;;;;;;;5.60;3.92;;;9.50;99.90;;;;;;5020040;28;20061;-81
2023/04/28 05:20:20;;;;;;;6.53;4.40;;;9.60;99.90;;;;;;5019191;28;20140;-81
2023/04/28 05:22:45;;;;;;;5.80;3.97;;;9.60;99.90;;;;;;5018006;28;20398;-82
2023/04/28 05:25:11;;;;;;;6.88;4.43;;;9.60;99.90;;;;;;5018462;28;20438;-82
2023/04/28 05:27:38;;;;;;;5.75;4.45;;;9.60;99.90;;;;;;5018379;28;20025;-83
2023/04/28 05:30:06;;;;;;;6.13;4.18;;;9.60;99.90;;;;;;5019551;28;20025;-82
2023/04/28 05:32:32;;;;;;;6.15;3.67;;;9.60;99.90;;;;;;5018079;28;20025;-82
2023/04/28 05:34:58;;;;;;;6.03;4.00;;;9.60;99.90;;;;;;5019814;28;20025;-83
2023/04/28 05:37:23;;;;;;;7.25;5.03;;;9.70;99.90;;;;;;5017579;28;20126;-82
2023/04/28 05:39:49;;;;;;;9.48;5.57;;;9.70;99.90;;;;;;5018295;28;20040;-83
2023/04/28 05:42:14;;;;;;;8.65;5.47;;;9.70;99.90;;;;;;5018160;28;20026;-83
2023/04/28 05:44:40;;;;;;;7.20;5.00;;;9.70;99.90;;;;;;5018401;28;20092;-83
2023/04/28 05:47:06;;;;;;;6.80;4.80;;;9.70;99.90;;;;;;5018621;28;20034;-82
2023/04/28 05:49:31;;;;;;;6.28;4.47;;;9.70;99.90;;;;;;5018296;28;20068;-83
2023/04/28 05:51:57;;;;;;;6.55;4.70;;;9.80;99.90;;;;;;5019758;28;20493;-82
2023/04/28 05:54:22;;;;;;;6.50;4.38;;;9.80;99.90;;;;;;5016704;28;20042;-82
2023/04/28 05:56:48;;;;;;;9.13;6.40;;;9.80;99.90;;;;;;5018126;28;20069;-82
2023/04/28 05:59:14;;;;;;;7.82;5.30;;;9.90;99.90;;;;;;5015539;28;20025;-81
2023/04/28 06:01:40;;;;;;;7.47;5.50;;;9.90;99.90;;;;;;5015319;28;20034;-82
2023/04/28 06:04:05;;;;;;;11.00;6.82;;;9.90;99.90;;;;;;5014643;28;20041;-82
2023/04/28 06:06:32;;;;;;;10.50;6.90;;;9.90;99.90;;;;;;5015273;28;20461;-82
2023/04/28 06:08:58;;;;;;;11.13;7.15;;;9.70;99.90;;;;;;5016655;28;20041;-81
2023/04/28 06:11:24;;;;;;;9.10;6.20;;;9.60;99.90;;;;;;5016301;28;20029;-81
2023/04/28 06:13:50;;;;;;;8.63;6.43;;;9.40;99.90;;;;;;5016624;28;20419;-83
2023/04/28 06:16:16;;;;;;;7.82;5.25;;;9.40;99.90;;;;;;5014630;28;20036;-82
2023/04/28 06:18:42;;;;;;;8.07;5.63;;;9.40;99.90;;;;;;5015510;28;20041;-82
2023/04/28 06:21:08;;;;;;;8.77;5.88;;;9.40;99.90;;;;;;5019031;28;20482;-83
2023/04/28 06:23:34;;;;;;;6.88;4.80;;;9.40;99.90;;;;;;5015120;28;20045;-84
2023/04/28 06:26:00;;;;;;;7.13;5.53;;;9.40;99.90;;;;;;5015864;28;20623;-82
2023/04/28 06:28:25;;;;;;;7.95;5.18;;;9.40;99.90;;;;;;5015210;28;20417;-82
2023/04/28 06:30:51;;;;;;;8.50;5.97;;;9.40;99.90;;;;;;5015031;28;20030;-82
2023/04/28 06:33:16;;;;;;;9.30;5.47;;;9.50;99.90;;;;;;5015898;28;20030;-82
2023/04/28 06:35:42;;;;;;;7.88;5.38;;;9.50;99.90;;;;;;5014431;28;20845;-81
2023/04/28 06:38:07;;;;;;;7.75;5.60;;;9.50;99.90;;;;;;5014351;28;20032;-82
2023/04/28 06:40:33;;;;;;;8.18;5.47;;;9.60;99.90;;;;;;5015029;28;20029;-82
2023/04/28 06:42:58;;;;;;;7.65;5.15;;;9.60;99.90;;;;;;5014828;28;20037;-82
2023/04/28 06:45:24;;;;;;;7.72;5.13;;;9.70;99.90;;;;;;5014522;28;20033;-82
2023/04/28 06:47:50;;;;;;;7.43;5.15;;;9.80;99.90;;;;;;5015268;28;20029;-81
2023/04/28 06:50:16;;;;;;;7.85;5.43;;;10.00;99.90;;;;;;5014369;28;20117;-83
2023/04/28 06:52:41;;;;;;;8.52;5.90;;;10.10;99.90;;;;;;5015237;28;20034;-85
2023/04/28 06:55:11;;;;;;;8.23;5.78;;;10.20;99.90;;;;;;5020053;28;20141;-84
2023/04/28 06:57:40;;;;;;;8.20;5.55;;;10.30;99.90;;;;;;5014434;28;20094;-82
2023/04/28 07:00:07;;;;;;;8.23;5.95;;;10.40;99.90;;;;;;5014343;28;20056;-82
2023/04/28 07:02:33;;;;;;;9.85;7.15;;;10.60;99.90;;;;;;5013811;28;20031;-81
2023/04/28 07:04:59;;;;;;;10.55;7.05;;;10.70;99.90;;;;;;5013563;28;20033;-83
2023/04/28 07:07:25;;;;;;;11.20;8.25;;;10.70;99.90;;;;;;5013948;28;20045;-83
2023/04/28 07:09:52;;;;;;;11.13;8.27;;;10.80;99.90;;;;;;5013070;28;20156;-81
2023/04/28 07:12:17;;;;;;;13.25;10.38;;;10.90;99.90;;;;;;5013624;28;20029;-84
2023/04/28 07:14:43;;;;;;;14.82;10.55;;;10.90;99.90;;;;;;5015374;28;22080;-84
2023/04/28 07:17:09;;;;;;;12.52;9.00;;;10.80;99.90;;;;;;5016932;28;20043;-84
2023/04/28 07:19:34;;;;;;;12.90;8.95;;;10.80;99.90;;;;;;5014548;28;20038;-84
2023/04/28 07:22:00;;;;;;;14.15;9.13;;;10.90;99.90;;;;;;5013300;28;20223;-84
2023/04/28 07:24:26;;;;;;;12.73;8.48;;;10.90;99.90;;;;;;5015314;28;20033;-84
2023/04/28 07:26:51;;;;;;;11.73;7.30;;;11.00;99.90;;;;;;5010714;28;20033;-83
2023/04/28 07:29:17;;;;;;;12.10;8.13;;;11.00;99.90;;;;;;5015901;28;20033;-83
2023/04/28 07:31:42;;;;;;;10.18;6.88;;;11.00;99.90;;;;;;5015180;28;20029;-84
2023/04/28 07:34:08;;;;;;;10.93;7.85;;;11.10;99.90;;;;;;5016845;28;20705;-84
2023/04/28 07:36:34;;;;;;;11.10;8.25;;;11.20;99.90;;;;;;5014691;28;20625;-82
2023/04/28 07:39:00;;;;;;;10.45;7.70;;;11.30;99.90;;;;;;5016024;28;20036;-85
2023/04/28 07:41:27;;;;;;;9.88;6.80;;;11.40;99.90;;;;;;5015105;28;20391;-85
2023/04/28 07:43:53;;;;;;;10.45;6.43;;;11.60;99.90;;;;;;5012799;28;20702;-84
2023/04/28 07:46:19;;;;;;;9.70;6.30;;;11.70;99.90;;;;;;5012906;28;20026;-84
2023/04/28 07:48:44;;;;;;;9.13;6.90;;;11.80;99.90;;;;;;5017441;28;20394;-85
2023/04/28 07:51:10;;;;;;;9.38;6.72;;;11.90;99.90;;;;;;5016587;28;20034;-83
2023/04/28 07:53:36;;;;;;;9.15;6.38;;;11.90;99.90;;;;;;5018104;28;20508;-84
2023/04/28 07:56:01;;;;;;;8.02;6.30;;;11.90;99.90;;;;;;5018192;28;20543;-84
2023/04/28 07:58:27;;;;;;;8.25;6.65;;;12.00;99.90;;;;;;5017403;28;20037;-86
2023/04/28 08:00:52;;;;;;;9.05;7.00;;;11.90;99.90;;;;;;5022921;28;20033;-86
2023/04/28 08:03:18;;;;;;;8.40;6.57;;;11.90;99.90;;;;;;5022126;28;20124;-84
2023/04/28 08:05:44;;;;;;;9.25;6.40;;;11.90;99.90;;;;;;5023494;28;20074;-85
2023/04/28 08:08:10;;;;;;;9.38;6.90;;;12.00;99.90;;;;;;5025284;28;20056;-84
2023/04/28 08:10:36;;;;;;;14.48;7.28;;;11.90;99.90;;;;;;5017627;28;20037;-85
2023/04/28 08:13:02;;;;;;;8.88;7.03;;;11.90;99.90;;;;;;5019257;28;20057;-85
2023/04/28 08:15:28;;;;;;;11.48;6.95;;;11.90;99.90;;;;;;5016887;28;20523;-85
2023/04/28 08:17:53;;;;;;;8.98;6.28;;;11.90;99.90;;;;;;5017990;28;20032;-84
2023/04/28 08:20:20;;;;;;;10.45;6.32;;;11.90;99.90;;;;;;5032835;28;20049;-85
2023/04/28 08:22:45;;;;;;;8.35;6.38;;;12.00;99.90;;;;;;5015392;28;20516;-86
2023/04/28 08:25:11;;;;;;;10.02;6.93;;;12.10;99.90;;;;;;5019610;28;20071;-83
2023/04/28 08:27:38;;;;;;;9.23;6.80;;;12.20;99.90;;;;;;5017399;28;20037;-84
2023/04/28 08:30:06;;;;;;;10.38;7.50;;;12.30;99.90;;;;;;5016403;28;20124;-84
2023/04/28 08:32:31;;;;;;;9.77;6.95;;;12.40;99.90;;;;;;5016434;28;20732;-86
2023/04/28 08:34:57;;;;;;;9.77;7.53;;;12.60;99.90;;;;;;5015584;28;20037;-83
2023/04/28 08:37:23;;;;;;;10.90;8.27;;;12.60;99.90;;;;;;5016667;28;20036;-83
2023/04/28 08:39:49;;;;;;;10.38;7.90;;;12.60;99.90;;;;;;5013223;28;20026;-84
2023/04/28 08:42:16;;;;;;;9.32;7.22;;;12.70;99.90;;;;;;5015960;28;20102;-85
2023/04/28 08:44:42;;;;;;;10.35;7.70;;;12.70;99.90;;;;;;5030314;28;20053;-84
2023/04/28 08:47:15;;;;;;;11.63;8.10;;;12.80;99.90;;;;;;5018885;28;20026;-84
2023/04/28 08:49:41;;;;;;;10.63;7.88;;;12.80;99.90;;;;;;5018571;28;20033;-84
2023/04/28 08:52:11;;;;;;;9.27;6.60;;;12.80;99.90;;;;;;5015699;28;20115;-83
2023/04/28 08:54:41;;;;;;;12.45;9.40;;;12.90;99.90;;;;;;5015827;28;20034;-84
2023/04/28 08:57:09;;;;;;;13.20;8.93;;;13.00;99.90;;;;;;5032299;28;20025;-84
2023/04/28 08:59:40;;;;;;;14.23;10.23;;;12.90;99.90;;;;;;5014617;28;20523;-85
2023/04/28 09:02:09;;;;;;;12.60;8.70;;;12.80;99.90;;;;;;5030384;28;20026;-83
2023/04/28 09:04:35;;;;;;;10.65;8.65;;;12.70;99.90;;;;;;5017266;28;20048;-85
2023/04/28 09:07:00;;;;;;;13.57;9.15;;;12.70;99.90;;;;;;5015837;28;20022;-84
2023/04/28 09:09:30;;;;;;;12.65;10.35;;;12.70;99.90;;;;;;5018239;28;20660;-85
2023/04/28 09:12:00;;;;;;;14.63;10.88;;;12.60;99.90;;;;;;5015908;28;20104;-84
2023/04/28 09:14:29;;;;;;;15.25;10.90;;;12.70;99.90;;;;;;5016511;28;20107;-84
2023/04/28 09:16:55;;;;;;;14.32;11.20;;;12.60;99.90;;;;;;5017634;28;20475;-84
2023/04/28 09:19:21;;;;;;;17.85;13.27;;;12.60;99.90;;;;;;5016746;28;20036;-84
2023/04/28 09:21:47;;;;;;;15.43;11.85;;;12.60;99.90;;;;;;5032244;28;20025;-85
2023/04/28 09:24:41;;;;;;;12.15;9.88;;;12.60;99.90;;;;;;5018946;28;20091;-85
2023/04/28 09:27:10;;;;;;;11.52;9.00;;;12.70;99.90;;;;;;5030742;28;20441;-84
2023/04/28 09:29:37;;;;;;;15.98;11.25;;;12.70;99.90;;;;;;5016174;28;20036;-85
2023/04/28 09:32:18;;;;;;;12.05;9.00;;;12.80;99.90;;;;;;5017696;28;20025;-84
2023/04/28 09:34:48;;;;;;;10.40;8.60;;;12.80;99.90;;;;;;5031504;28;20030;-86
2023/04/28 09:37:19;;;;;;;12.25;9.10;;;12.90;99.90;;;;;;5016413;28;20049;-85
2023/04/28 09:39:52;;;;;;;17.65;12.02;;;12.90;99.90;;;;;;5016143;28;20045;-84
2023/04/28 09:42:38;;;;;;;13.52;10.88;;;12.80;99.90;;;;;;5015032;28;20022;-84
2023/04/28 09:45:05;;;;;;;13.85;9.73;;;12.80;99.90;;;;;;5017857;28;20498;-85
2023/04/28 09:47:33;;;;;;;10.85;8.80;;;12.80;99.90;;;;;;5017549;28;20064;-85
2023/04/28 09:50:00;;;;;;;10.23;8.02;;;12.90;99.90;;;;;;5017020;28;20124;-85
2023/04/28 09:52:26;;;;;;;10.02;7.80;;;12.90;99.90;;;;;;5016184;28;20033;-84
2023/04/28 09:54:54;;;;;;;13.32;10.02;;;12.90;99.90;;;;;;5018312;28;20060;-85
2023/04/28 09:57:21;;;;;;;11.25;9.13;;;13.00;99.90;;;;;;5019019;28;20017;-85
2023/04/28 09:59:52;;;;;;;12.20;9.50;;;12.90;99.90;;;;;;5032120;28;20128;-85
2023/04/28 10:02:19;;;;;;;10.15;8.43;;;12.90;99.90;;;;;;5017204;28;20545;-85
2023/04/28 10:04:47;;;;;;;10.55;7.85;;;13.00;99.90;;;;;;5016970;28;20037;-84
2023/04/28 10:07:15;;;;;;;10.23;8.15;;;13.00;99.90;;;;;;5016922;28;20034;-84
2023/04/28 10:09:46;;;;;;;9.38;8.20;;;13.10;99.90;;;;;;5015735;28;20566;-83
2023/04/28 10:12:13;;;;;;;8.88;7.30;;;13.10;99.90;;;;;;5022129;28;20810;-85
2023/04/28 10:14:40;;;;;;;8.82;7.13;;;13.20;99.90;;;;;;5017063;28;20028;-84
2023/04/28 10:17:06;;;;;;;8.70;7.05;;;13.20;99.90;;;;;;5018020;28;20034;-85
2023/04/28 10:19:32;;;;;;;9.73;7.90;;;13.20;99.90;;;;;;5016594;28;20033;-84
2023/04/28 10:22:21;;;;;;;10.88;9.65;;;13.30;99.90;;;;;;5016359;28;20045;-84
2023/04/28 10:25:11;;;;;;;10.85;9.48;;;13.30;99.90;;;;;;5016665;28;20037;-85
2023/04/28 10:27:44;;;;;;;10.45;8.65;;;13.20;99.90;;;;;;5021442;28;20022;-89
2023/04/28 10:30:13;;;;;;;11.73;9.85;;;13.30;99.90;;;;;;5018231;28;20038;-84
2023/04/28 10:32:40;;;;;;;12.52;9.43;;;13.30;99.90;;;;;;5016617;28;20171;-85
2023/04/28 10:35:21;;;;;;;14.95;11.05;;;13.30;99.90;;;;;;5017103;28;20037;-85
2023/04/28 10:38:09;;;;;;;11.85;9.90;;;13.40;99.90;;;;;;5020761;28;20079;-87
2023/04/28 10:40:40;;;;;;;11.15;10.02;;;13.40;99.90;;;;;;5016295;28;20068;-82
2023/04/28 10:43:07;;;;;;;10.82;9.73;;;13.40;99.90;;;;;;5014353;28;20021;-82
2023/04/28 10:45:48;;;;;;;11.70;9.80;;;13.50;99.90;;;;;;5014838;28;21628;-83
2023/04/28 10:48:20;;;;;;;11.13;9.60;;;13.50;99.90;;;;;;5014050;28;21029;-84
2023/04/28 10:51:11;;;;;;;11.60;9.57;;;13.60;99.90;;;;;;5015046;28;20029;-84
2023/04/28 10:53:43;;;;;;;11.75;10.07;;;13.60;99.90;;;;;;5014329;28;20032;-84
2023/04/28 10:56:25;;;;;;;12.90;11.50;;;13.60;99.90;;;;;;5016464;28;20445;-88
2023/04/28 10:58:51;;;;;;;12.23;10.93;;;13.60;99.90;;;;;;5032305;28;20021;-87
2023/04/28 11:01:23;;;;;;;10.43;9.30;;;13.60;99.90;;;;;;5016832;28;20144;-86
2023/04/28 11:06:38;;;;;;;8.10;7.22;;;13.70;99.90;;;;;;5019062;28;20045;-85
2023/04/28 11:09:22;;;;;;;9.18;6.88;;;13.70;99.90;;;;;;5018364;28;20419;-85
2023/04/28 11:11:54;;;;;;;8.18;6.95;;;13.90;99.90;;;;;;5014486;28;20106;-84
2023/04/28 11:14:20;;;;;;;7.60;6.50;;;13.90;99.90;;;;;;5015124;28;20108;-83
2023/04/28 11:16:58;;;;;;;7.15;6.10;;;14.00;99.90;;;;;;5015010;28;20029;-84
2023/04/28 11:19:35;;;;;;;5.82;5.22;;;14.00;99.90;;;;;;5013072;28;20043;-85
2023/04/28 11:22:22;;;;;;;6.00;5.35;;;14.00;99.90;;;;;;5009520;28;20036;-84
2023/04/28 11:24:58;;;;;;;9.00;7.07;;;14.00;99.90;;;;;;5018004;28;20079;-83
2023/04/28 11:27:25;;;;;;;6.90;5.57;;;14.00;99.90;;;;;;5012642;28;20018;-84
2023/04/28 11:29:51;;;;;;;8.10;7.30;;;13.90;99.90;;;;;;5016895;28;20589;-83
2023/04/28 11:32:32;;;;;;;9.38;8.40;;;13.80;99.90;;;;;;5012475;28;20037;-84
2023/04/28 11:34:58;;;;;;;10.93;9.82;;;13.70;99.90;;;;;;5013546;28;20030;-85
2023/04/28 11:37:24;;;;;;;10.73;8.27;;;13.50;99.90;;;;;;5015173;28;20033;-85
2023/04/28 11:39:50;;;;;;;8.32;6.82;;;13.50;99.90;;;;;;5019410;28;20568;-85
2023/04/28 11:42:16;;;;;;;9.27;8.27;;;13.40;99.90;;;;;;5014359;28;20124;-84
2023/04/28 11:44:50;;;;;;;8.65;7.65;;;13.50;99.90;;;;;;5031781;28;20033;-85
2023/04/28 11:47:15;;;;;;;11.82;10.60;;;13.50;99.90;;;;;;5014888;28;20059;-85
2023/04/28 11:49:43;;;;;;;14.23;10.57;;;13.50;99.90;;;;;;5014237;28;20033;-86
2023/04/28 11:52:09;;;;;;;13.15;11.63;;;13.60;99.90;;;;;;5013116;28;20033;-86
2023/04/28 11:54:36;;;;;;;11.52;10.27;;;13.90;99.90;;;;;;5014542;28;20072;-85
2023/04/28 11:57:03;;;;;;;13.27;11.07;;;14.00;99.90;;;;;;5014463;28;20025;-84
2023/04/28 11:59:32;;;;;;;15.13;12.80;;;14.10;99.90;;;;;;5014957;28;20060;-84
2023/04/28 12:02:01;;;;;;;13.98;11.95;;;14.20;99.90;;;;;;5015284;28;20025;-86
2023/04/28 12:04:40;;;;;;;16.33;12.60;;;14.20;99.90;;;;;;5030360;28;20042;-85
2023/04/28 12:07:17;;;;;;;13.93;11.88;;;14.20;99.90;;;;;;5016424;28;20501;-85
2023/04/28 12:09:43;;;;;;;17.17;14.27;;;14.20;99.90;;;;;;5016580;28;20049;-85
2023/04/28 12:12:11;;;;;;;14.85;12.68;;;14.10;99.90;;;;;;5014675;28;20025;-83
2023/04/28 12:15:00;;;;;;;13.60;10.85;;;14.10;99.90;;;;;;5030007;28;20168;-85
2023/04/28 12:17:42;;;;;;;15.23;13.15;;;14.00;99.90;;;;;;5013021;28;20057;-84
2023/04/28 12:20:31;;;;;;;12.48;10.77;;;13.90;99.90;;;;;;5013458;28;20060;-84
2023/04/28 12:22:57;;;;;;;14.00;10.68;;;13.90;99.90;;;;;;5015332;28;20065;-83
2023/04/28 12:25:22;;;;;;;11.23;9.35;;;13.90;99.90;;;;;;5019275;28;20053;-84
2023/04/28 12:28:02;;;;;;;11.55;9.70;;;13.90;99.90;;;;;;5012228;28;20522;-84
2023/04/28 12:30:29;;;;;;;13.00;11.13;;;13.90;99.90;;;;;;5011336;28;20037;-85
2023/04/28 12:32:55;;;;;;;13.77;10.90;;;13.80;99.90;;;;;;5014838;28;20035;-84
2023/04/28 12:35:27;;;;;;;12.90;10.05;;;13.70;99.90;;;;;;5013182;28;20022;-85
2023/04/28 12:37:54;;;;;;;13.18;10.32;;;13.70;99.90;;;;;;5015100;28;20600;-85
2023/04/28 12:40:19;;;;;;;11.95;9.68;;;13.70;99.90;;;;;;5017472;28;20030;-84
2023/04/28 12:42:45;;;;;;;12.13;9.73;;;13.80;99.90;;;;;;5020923;28;20044;-84
2023/04/28 12:45:11;;;;;;;10.98;9.13;;;13.80;99.90;;;;;;5013265;28;20641;-85
2023/04/28 12:47:40;;;;;;;12.82;9.98;;;13.80;99.90;;;;;;5014098;28;20014;-85
2023/04/28 12:50:07;;;;;;;12.95;9.63;;;13.70;99.90;;;;;;5012838;28;20403;-83